sensor_id;sensor_type;location;lat;lon;timestamp;temperature;humidity
66835;HTU21D;53743;51.100;5.874;2024-02-23T00:00:01;7.04;83.20
66835;HTU21D;53743;51.100;5.874;2024-02-23T00:01:05;7.04;82.80
66835;HTU21D;53743;51.100;5.874;2024-02-23T00:02:06;7.07;83.30
66835;HTU21D;53743;51.100;5.874;2024-02-23T00:03:08;7.09;82.60
66835;HTU21D;53743;51.100;5.874;2024-02-23T00:04:11;7.16;83.16
66835;HTU21D;53743;51.100;5.874;2024-02-23T00:05:13;7.16;81.67
66835;HTU21D;53743;51.100;5.874;2024-02-23T00:06:14;7.24;81.47
66835;HTU21D;53743;51.100;5.874;2024-02-23T00:07:16;7.16;82.31
66835;HTU21D;53743;51.100;5.874;2024-02-23T00:08:17;7.19;80.94
66835;HTU21D;53743;51.100;5.874;2024-02-23T00:09:21;7.24;81.05
66835;HTU21D;53743;51.100;5.874;2024-02-23T00:10:23;7.20;80.80
66835;HTU21D;53743;51.100;5.874;2024-02-23T00:11:24;7.15;80.74
66835;HTU21D;53743;51.100;5.874;2024-02-23T00:12:26;7.16;80.82
66835;HTU21D;53743;51.100;5.874;2024-02-23T00:13:27;7.23;80.75
66835;HTU21D;53743;51.100;5.874;2024-02-23T00:14:29;7.16;79.85
66835;HTU21D;53743;51.100;5.874;2024-02-23T00:15:31;7.12;81.39
66835;HTU21D;53743;51.100;5.874;2024-02-23T00:16:37;7.17;80.94
66835;HTU21D;53743;51.100;5.874;2024-02-23T00:17:40;7.19;80.41
66835;HTU21D;53743;51.100;5.874;2024-02-23T00:18:41;7.18;80.07
66835;HTU21D;53743;51.100;5.874;2024-02-23T00:19:45;7.10;80.43
66835;HTU21D;53743;51.100;5.874;2024-02-23T00:20:47;7.08;80.57
66835;HTU21D;53743;51.100;5.874;2024-02-23T00:21:48;7.02;80.70
66835;HTU21D;53743;51.100;5.874;2024-02-23T00:22:50;6.98;80.97
66835;HTU21D;53743;51.100;5.874;2024-02-23T00:23:51;6.94;81.49
66835;HTU21D;53743;51.100;5.874;2024-02-23T00:24:54;6.94;81.10
66835;HTU21D;53743;51.100;5.874;2024-02-23T00:25:55;6.95;81.78
66835;HTU21D;53743;51.100;5.874;2024-02-23T00:26:57;6.93;81.25
66835;HTU21D;53743;51.100;5.874;2024-02-23T00:27:58;6.96;80.85
66835;HTU21D;53743;51.100;5.874;2024-02-23T00:29:00;6.99;80.36
66835;HTU21D;53743;51.100;5.874;2024-02-23T00:30:03;6.96;81.19
66835;HTU21D;53743;51.100;5.874;2024-02-23T00:31:06;6.96;80.01
66835;HTU21D;53743;51.100;5.874;2024-02-23T00:32:07;7.01;80.09
66835;HTU21D;53743;51.100;5.874;2024-02-23T00:33:09;6.95;80.51
66835;HTU21D;53743;51.100;5.874;2024-02-23T00:34:10;6.95;80.87
66835;HTU21D;53743;51.100;5.874;2024-02-23T00:35:14;6.98;80.76
66835;HTU21D;53743;51.100;5.874;2024-02-23T00:36:15;6.99;80.19
66835;HTU21D;53743;51.100;5.874;2024-02-23T00:37:17;6.95;80.33
66835;HTU21D;53743;51.100;5.874;2024-02-23T00:38:18;6.93;80.06
66835;HTU21D;53743;51.100;5.874;2024-02-23T00:39:20;6.94;80.01
66835;HTU21D;53743;51.100;5.874;2024-02-23T00:40:22;6.96;79.91
66835;HTU21D;53743;51.100;5.874;2024-02-23T00:41:24;6.99;80.38
66835;HTU21D;53743;51.100;5.874;2024-02-23T00:42:25;7.00;80.52
66835;HTU21D;53743;51.100;5.874;2024-02-23T00:43:27;6.98;79.82
66835;HTU21D;53743;51.100;5.874;2024-02-23T00:44:29;6.94;80.25
66835;HTU21D;53743;51.100;5.874;2024-02-23T00:45:31;6.94;79.99
66835;HTU21D;53743;51.100;5.874;2024-02-23T00:46:32;6.94;80.23
66835;HTU21D;53743;51.100;5.874;2024-02-23T00:47:35;6.95;79.79
66835;HTU21D;53743;51.100;5.874;2024-02-23T00:48:36;6.94;79.88
66835;HTU21D;53743;51.100;5.874;2024-02-23T00:49:38;6.96;80.30
66835;HTU21D;53743;51.100;5.874;2024-02-23T00:50:39;6.95;80.33
66835;HTU21D;53743;51.100;5.874;2024-02-23T00:51:40;7.00;79.43
66835;HTU21D;53743;51.100;5.874;2024-02-23T00:52:41;6.96;79.30
66835;HTU21D;53743;51.100;5.874;2024-02-23T00:53:43;6.95;80.49
66835;HTU21D;53743;51.100;5.874;2024-02-23T00:54:44;6.95;79.50
66835;HTU21D;53743;51.100;5.874;2024-02-23T00:55:47;6.98;80.27
66835;HTU21D;53743;51.100;5.874;2024-02-23T00:56:49;6.98;80.17
66835;HTU21D;53743;51.100;5.874;2024-02-23T00:57:50;6.97;80.75
66835;HTU21D;53743;51.100;5.874;2024-02-23T00:58:52;6.90;81.06
66835;HTU21D;53743;51.100;5.874;2024-02-23T00:59:53;6.88;80.93
66835;HTU21D;53743;51.100;5.874;2024-02-23T01:00:55;6.90;81.60
66835;HTU21D;53743;51.100;5.874;2024-02-23T01:01:56;6.90;81.49
66835;HTU21D;53743;51.100;5.874;2024-02-23T01:02:58;6.86;81.72
66835;HTU21D;53743;51.100;5.874;2024-02-23T01:04:00;6.83;81.47
66835;HTU21D;53743;51.100;5.874;2024-02-23T01:05:01;6.82;81.93
66835;HTU21D;53743;51.100;5.874;2024-02-23T01:06:04;6.89;81.23
66835;HTU21D;53743;51.100;5.874;2024-02-23T01:07:05;6.83;81.71
66835;HTU21D;53743;51.100;5.874;2024-02-23T01:08:07;6.83;81.62
66835;HTU21D;53743;51.100;5.874;2024-02-23T01:09:08;6.79;82.39
66835;HTU21D;53743;51.100;5.874;2024-02-23T01:10:10;6.78;82.26
66835;HTU21D;53743;51.100;5.874;2024-02-23T01:11:12;6.79;82.71
66835;HTU21D;53743;51.100;5.874;2024-02-23T01:12:14;6.78;82.46
66835;HTU21D;53743;51.100;5.874;2024-02-23T01:13:15;6.79;82.88
66835;HTU21D;53743;51.100;5.874;2024-02-23T01:14:17;6.78;82.79
66835;HTU21D;53743;51.100;5.874;2024-02-23T01:15:18;6.76;83.05
66835;HTU21D;53743;51.100;5.874;2024-02-23T01:16:20;6.70;82.96
66835;HTU21D;53743;51.100;5.874;2024-02-23T01:17:21;6.73;83.26
66835;HTU21D;53743;51.100;5.874;2024-02-23T01:18:23;6.79;82.38
66835;HTU21D;53743;51.100;5.874;2024-02-23T01:19:24;6.81;82.07
66835;HTU21D;53743;51.100;5.874;2024-02-23T01:20:26;6.78;82.78
66835;HTU21D;53743;51.100;5.874;2024-02-23T01:21:27;6.81;82.08
66835;HTU21D;53743;51.100;5.874;2024-02-23T01:22:29;6.85;82.04
66835;HTU21D;53743;51.100;5.874;2024-02-23T01:23:30;6.85;82.79
66835;HTU21D;53743;51.100;5.874;2024-02-23T01:24:31;6.85;82.87
66835;HTU21D;53743;51.100;5.874;2024-02-23T01:25:33;6.85;81.72
66835;HTU21D;53743;51.100;5.874;2024-02-23T01:26:36;6.88;81.65
66835;HTU21D;53743;51.100;5.874;2024-02-23T01:27:38;6.88;81.15
66835;HTU21D;53743;51.100;5.874;2024-02-23T01:28:40;6.85;82.30
66835;HTU21D;53743;51.100;5.874;2024-02-23T01:29:42;6.86;81.30
66835;HTU21D;53743;51.100;5.874;2024-02-23T01:30:43;6.86;80.93
66835;HTU21D;53743;51.100;5.874;2024-02-23T01:31:45;6.83;81.64
66835;HTU21D;53743;51.100;5.874;2024-02-23T01:32:46;6.85;81.97
66835;HTU21D;53743;51.100;5.874;2024-02-23T01:33:48;6.85;81.43
66835;HTU21D;53743;51.100;5.874;2024-02-23T01:34:50;6.83;81.04
66835;HTU21D;53743;51.100;5.874;2024-02-23T01:35:52;6.87;81.49
66835;HTU21D;53743;51.100;5.874;2024-02-23T01:36:53;6.84;81.20
66835;HTU21D;53743;51.100;5.874;2024-02-23T01:37:55;6.75;80.32
66835;HTU21D;53743;51.100;5.874;2024-02-23T01:38:56;6.71;81.05
66835;HTU21D;53743;51.100;5.874;2024-02-23T01:39:57;6.69;81.72
66835;HTU21D;53743;51.100;5.874;2024-02-23T01:40:59;6.71;80.88
66835;HTU21D;53743;51.100;5.874;2024-02-23T01:42:02;6.72;81.49
66835;HTU21D;53743;51.100;5.874;2024-02-23T01:43:05;6.72;81.36
66835;HTU21D;53743;51.100;5.874;2024-02-23T01:44:06;6.65;80.77
66835;HTU21D;53743;51.100;5.874;2024-02-23T01:45:08;6.68;81.58
66835;HTU21D;53743;51.100;5.874;2024-02-23T01:46:09;6.72;79.99
66835;HTU21D;53743;51.100;5.874;2024-02-23T01:47:12;6.66;80.65
66835;HTU21D;53743;51.100;5.874;2024-02-23T01:48:13;6.63;80.99
66835;HTU21D;53743;51.100;5.874;2024-02-23T01:49:15;6.67;81.10
66835;HTU21D;53743;51.100;5.874;2024-02-23T01:50:16;6.69;80.59
66835;HTU21D;53743;51.100;5.874;2024-02-23T01:51:19;6.68;80.98
66835;HTU21D;53743;51.100;5.874;2024-02-23T01:52:21;6.66;81.04
66835;HTU21D;53743;51.100;5.874;2024-02-23T01:53:24;6.63;81.35
66835;HTU21D;53743;51.100;5.874;2024-02-23T01:54:29;6.59;81.54
66835;HTU21D;53743;51.100;5.874;2024-02-23T01:55:31;6.61;81.24
66835;HTU21D;53743;51.100;5.874;2024-02-23T01:56:35;6.52;80.81
66835;HTU21D;53743;51.100;5.874;2024-02-23T01:57:39;6.56;81.62
66835;HTU21D;53743;51.100;5.874;2024-02-23T01:58:41;6.57;80.98
66835;HTU21D;53743;51.100;5.874;2024-02-23T01:59:43;6.53;80.78
66835;HTU21D;53743;51.100;5.874;2024-02-23T02:00:45;6.58;81.10
66835;HTU21D;53743;51.100;5.874;2024-02-23T02:01:47;6.56;80.91
66835;HTU21D;53743;51.100;5.874;2024-02-23T02:02:48;6.58;81.45
66835;HTU21D;53743;51.100;5.874;2024-02-23T02:03:51;6.57;81.85
66835;HTU21D;53743;51.100;5.874;2024-02-23T02:04:52;6.60;82.11
66835;HTU21D;53743;51.100;5.874;2024-02-23T02:05:55;6.66;81.22
66835;HTU21D;53743;51.100;5.874;2024-02-23T02:06:59;6.63;81.07
66835;HTU21D;53743;51.100;5.874;2024-02-23T02:08:02;6.68;81.49
66835;HTU21D;53743;51.100;5.874;2024-02-23T02:09:05;6.71;81.66
66835;HTU21D;53743;51.100;5.874;2024-02-23T02:10:09;6.71;81.57
66835;HTU21D;53743;51.100;5.874;2024-02-23T02:11:10;6.70;81.91
66835;HTU21D;53743;51.100;5.874;2024-02-23T02:12:12;6.70;81.42
66835;HTU21D;53743;51.100;5.874;2024-02-23T02:13:14;6.75;81.46
66835;HTU21D;53743;51.100;5.874;2024-02-23T02:14:16;6.81;80.58
66835;HTU21D;53743;51.100;5.874;2024-02-23T02:15:18;6.82;81.24
66835;HTU21D;53743;51.100;5.874;2024-02-23T02:16:22;6.82;80.65
66835;HTU21D;53743;51.100;5.874;2024-02-23T02:17:24;6.85;81.40
66835;HTU21D;53743;51.100;5.874;2024-02-23T02:18:25;6.85;80.71
66835;HTU21D;53743;51.100;5.874;2024-02-23T02:19:26;6.86;80.95
66835;HTU21D;53743;51.100;5.874;2024-02-23T02:20:32;6.85;80.59
66835;HTU21D;53743;51.100;5.874;2024-02-23T02:21:35;6.85;80.63
66835;HTU21D;53743;51.100;5.874;2024-02-23T02:22:37;6.83;80.74
66835;HTU21D;53743;51.100;5.874;2024-02-23T02:23:39;6.84;81.39
66835;HTU21D;53743;51.100;5.874;2024-02-23T02:24:40;6.87;81.39
66835;HTU21D;53743;51.100;5.874;2024-02-23T02:25:44;6.87;81.63
66835;HTU21D;53743;51.100;5.874;2024-02-23T02:26:45;6.91;80.78
66835;HTU21D;53743;51.100;5.874;2024-02-23T02:27:47;6.93;81.01
66835;HTU21D;53743;51.100;5.874;2024-02-23T02:28:49;6.93;80.62
66835;HTU21D;53743;51.100;5.874;2024-02-23T02:29:53;6.89;80.28
66835;HTU21D;53743;51.100;5.874;2024-02-23T02:30:54;6.90;80.72
66835;HTU21D;53743;51.100;5.874;2024-02-23T02:31:56;6.90;81.39
66835;HTU21D;53743;51.100;5.874;2024-02-23T02:32:57;6.87;81.08
66835;HTU21D;53743;51.100;5.874;2024-02-23T02:33:59;6.89;81.46
66835;HTU21D;53743;51.100;5.874;2024-02-23T02:35:00;6.91;81.04
66835;HTU21D;53743;51.100;5.874;2024-02-23T02:36:01;6.88;80.46
66835;HTU21D;53743;51.100;5.874;2024-02-23T02:37:03;6.87;80.23
66835;HTU21D;53743;51.100;5.874;2024-02-23T02:38:04;6.83;80.81
66835;HTU21D;53743;51.100;5.874;2024-02-23T02:39:05;6.84;81.17
66835;HTU21D;53743;51.100;5.874;2024-02-23T02:40:08;6.82;80.70
66835;HTU21D;53743;51.100;5.874;2024-02-23T02:41:09;6.82;79.86
66835;HTU21D;53743;51.100;5.874;2024-02-23T02:42:11;6.87;80.47
66835;HTU21D;53743;51.100;5.874;2024-02-23T02:43:12;6.87;80.63
66835;HTU21D;53743;51.100;5.874;2024-02-23T02:44:16;6.89;80.85
66835;HTU21D;53743;51.100;5.874;2024-02-23T02:45:17;6.86;80.17
66835;HTU21D;53743;51.100;5.874;2024-02-23T02:46:19;6.89;79.27
66835;HTU21D;53743;51.100;5.874;2024-02-23T02:47:20;6.90;79.78
66835;HTU21D;53743;51.100;5.874;2024-02-23T02:48:22;6.87;79.25
66835;HTU21D;53743;51.100;5.874;2024-02-23T02:49:23;6.85;79.66
66835;HTU21D;53743;51.100;5.874;2024-02-23T02:50:25;6.82;80.40
66835;HTU21D;53743;51.100;5.874;2024-02-23T02:51:26;6.82;80.55
66835;HTU21D;53743;51.100;5.874;2024-02-23T02:52:28;6.80;80.36
66835;HTU21D;53743;51.100;5.874;2024-02-23T02:53:29;6.71;79.95
66835;HTU21D;53743;51.100;5.874;2024-02-23T02:54:31;6.75;80.16
66835;HTU21D;53743;51.100;5.874;2024-02-23T02:55:32;6.72;80.31
66835;HTU21D;53743;51.100;5.874;2024-02-23T02:56:34;6.69;80.43
66835;HTU21D;53743;51.100;5.874;2024-02-23T02:57:35;6.72;80.70
66835;HTU21D;53743;51.100;5.874;2024-02-23T02:58:36;6.76;79.30
66835;HTU21D;53743;51.100;5.874;2024-02-23T02:59:39;6.71;80.07
66835;HTU21D;53743;51.100;5.874;2024-02-23T03:00:40;6.71;80.59
66835;HTU21D;53743;51.100;5.874;2024-02-23T03:01:41;6.68;80.13
66835;HTU21D;53743;51.100;5.874;2024-02-23T03:02:43;6.71;80.36
66835;HTU21D;53743;51.100;5.874;2024-02-23T03:03:44;6.73;79.04
66835;HTU21D;53743;51.100;5.874;2024-02-23T03:04:47;6.79;80.42
66835;HTU21D;53743;51.100;5.874;2024-02-23T03:05:48;6.85;80.57
66835;HTU21D;53743;51.100;5.874;2024-02-23T03:06:50;6.85;79.72
66835;HTU21D;53743;51.100;5.874;2024-02-23T03:07:51;6.83;78.84
66835;HTU21D;53743;51.100;5.874;2024-02-23T03:08:53;6.86;77.82
66835;HTU21D;53743;51.100;5.874;2024-02-23T03:09:54;6.95;79.14
66835;HTU21D;53743;51.100;5.874;2024-02-23T03:10:56;6.94;79.33
66835;HTU21D;53743;51.100;5.874;2024-02-23T03:11:57;6.97;79.73
66835;HTU21D;53743;51.100;5.874;2024-02-23T03:12:59;7.01;79.95
66835;HTU21D;53743;51.100;5.874;2024-02-23T03:14:00;7.02;79.95
66835;HTU21D;53743;51.100;5.874;2024-02-23T03:15:05;7.02;79.28
66835;HTU21D;53743;51.100;5.874;2024-02-23T03:16:14;6.99;79.33
66835;HTU21D;53743;51.100;5.874;2024-02-23T03:17:16;7.03;79.33
66835;HTU21D;53743;51.100;5.874;2024-02-23T03:18:17;7.07;79.24
66835;HTU21D;53743;51.100;5.874;2024-02-23T03:19:19;7.11;80.09
66835;HTU21D;53743;51.100;5.874;2024-02-23T03:20:22;7.13;79.52
66835;HTU21D;53743;51.100;5.874;2024-02-23T03:21:24;7.14;78.43
66835;HTU21D;53743;51.100;5.874;2024-02-23T03:22:25;7.16;79.31
66835;HTU21D;53743;51.100;5.874;2024-02-23T03:23:27;7.16;79.34
66835;HTU21D;53743;51.100;5.874;2024-02-23T03:24:29;7.15;78.30
66835;HTU21D;53743;51.100;5.874;2024-02-23T03:25:30;7.13;79.17
66835;HTU21D;53743;51.100;5.874;2024-02-23T03:26:32;7.17;79.77
66835;HTU21D;53743;51.100;5.874;2024-02-23T03:27:33;7.20;78.79
66835;HTU21D;53743;51.100;5.874;2024-02-23T03:28:36;7.20;79.08
66835;HTU21D;53743;51.100;5.874;2024-02-23T03:29:38;7.19;79.02
66835;HTU21D;53743;51.100;5.874;2024-02-23T03:30:42;7.27;79.82
66835;HTU21D;53743;51.100;5.874;2024-02-23T03:31:43;7.28;79.46
66835;HTU21D;53743;51.100;5.874;2024-02-23T03:32:44;7.29;79.94
66835;HTU21D;53743;51.100;5.874;2024-02-23T03:33:47;7.30;79.06
66835;HTU21D;53743;51.100;5.874;2024-02-23T03:34:48;7.33;79.01
66835;HTU21D;53743;51.100;5.874;2024-02-23T03:35:50;7.35;77.89
66835;HTU21D;53743;51.100;5.874;2024-02-23T03:36:51;7.35;78.80
66835;HTU21D;53743;51.100;5.874;2024-02-23T03:37:52;7.33;78.94
66835;HTU21D;53743;51.100;5.874;2024-02-23T03:38:54;7.38;79.83
66835;HTU21D;53743;51.100;5.874;2024-02-23T03:39:55;7.41;80.05
66835;HTU21D;53743;51.100;5.874;2024-02-23T03:40:57;7.43;79.78
66835;HTU21D;53743;51.100;5.874;2024-02-23T03:41:58;7.42;79.16
66835;HTU21D;53743;51.100;5.874;2024-02-23T03:42:59;7.40;77.86
66835;HTU21D;53743;51.100;5.874;2024-02-23T03:44:01;7.45;79.53
66835;HTU21D;53743;51.100;5.874;2024-02-23T03:45:02;7.45;79.38
66835;HTU21D;53743;51.100;5.874;2024-02-23T03:46:07;7.46;77.58
66835;HTU21D;53743;51.100;5.874;2024-02-23T03:47:08;7.48;78.73
66835;HTU21D;53743;51.100;5.874;2024-02-23T03:48:10;7.46;79.25
66835;HTU21D;53743;51.100;5.874;2024-02-23T03:49:11;7.44;78.93
66835;HTU21D;53743;51.100;5.874;2024-02-23T03:50:13;7.46;78.96
66835;HTU21D;53743;51.100;5.874;2024-02-23T03:51:14;7.49;79.22
66835;HTU21D;53743;51.100;5.874;2024-02-23T03:52:16;7.50;79.01
66835;HTU21D;53743;51.100;5.874;2024-02-23T03:53:17;7.50;79.24
66835;HTU21D;53743;51.100;5.874;2024-02-23T03:54:18;7.54;79.72
66835;HTU21D;53743;51.100;5.874;2024-02-23T03:55:20;7.55;78.34
66835;HTU21D;53743;51.100;5.874;2024-02-23T03:56:22;7.58;78.92
66835;HTU21D;53743;51.100;5.874;2024-02-23T03:57:23;7.58;78.80
66835;HTU21D;53743;51.100;5.874;2024-02-23T03:58:25;7.60;79.13
66835;HTU21D;53743;51.100;5.874;2024-02-23T03:59:26;7.58;78.70
66835;HTU21D;53743;51.100;5.874;2024-02-23T04:00:27;7.59;78.80
66835;HTU21D;53743;51.100;5.874;2024-02-23T04:01:30;7.58;78.87
66835;HTU21D;53743;51.100;5.874;2024-02-23T04:02:31;7.52;78.13
66835;HTU21D;53743;51.100;5.874;2024-02-23T04:03:33;7.50;78.49
66835;HTU21D;53743;51.100;5.874;2024-02-23T04:04:34;7.50;78.53
66835;HTU21D;53743;51.100;5.874;2024-02-23T04:05:36;7.50;78.62
66835;HTU21D;53743;51.100;5.874;2024-02-23T04:06:37;7.48;78.85
66835;HTU21D;53743;51.100;5.874;2024-02-23T04:07:39;7.47;78.70
66835;HTU21D;53743;51.100;5.874;2024-02-23T04:08:40;7.48;78.04
66835;HTU21D;53743;51.100;5.874;2024-02-23T04:09:42;7.49;78.91
66835;HTU21D;53743;51.100;5.874;2024-02-23T04:10:43;7.48;79.23
66835;HTU21D;53743;51.100;5.874;2024-02-23T04:11:47;7.54;79.40
66835;HTU21D;53743;51.100;5.874;2024-02-23T04:12:48;7.53;78.14
66835;HTU21D;53743;51.100;5.874;2024-02-23T04:13:50;7.54;78.66
66835;HTU21D;53743;51.100;5.874;2024-02-23T04:14:51;7.54;77.63
66835;HTU21D;53743;51.100;5.874;2024-02-23T04:15:52;7.59;78.97
66835;HTU21D;53743;51.100;5.874;2024-02-23T04:16:56;7.58;79.01
66835;HTU21D;53743;51.100;5.874;2024-02-23T04:17:57;7.57;77.74
66835;HTU21D;53743;51.100;5.874;2024-02-23T04:18:58;7.57;78.01
66835;HTU21D;53743;51.100;5.874;2024-02-23T04:20:05;7.56;77.68
66835;HTU21D;53743;51.100;5.874;2024-02-23T04:21:08;7.56;77.72
66835;HTU21D;53743;51.100;5.874;2024-02-23T04:22:10;7.57;77.98
66835;HTU21D;53743;51.100;5.874;2024-02-23T04:23:11;7.53;77.52
66835;HTU21D;53743;51.100;5.874;2024-02-23T04:24:13;7.52;77.92
66835;HTU21D;53743;51.100;5.874;2024-02-23T04:25:14;7.50;78.47
66835;HTU21D;53743;51.100;5.874;2024-02-23T04:26:16;7.49;77.35
66835;HTU21D;53743;51.100;5.874;2024-02-23T04:27:17;7.47;77.21
66835;HTU21D;53743;51.100;5.874;2024-02-23T04:28:19;7.48;78.78
66835;HTU21D;53743;51.100;5.874;2024-02-23T04:29:20;7.47;77.72
66835;HTU21D;53743;51.100;5.874;2024-02-23T04:30:22;7.49;77.47
66835;HTU21D;53743;51.100;5.874;2024-02-23T04:31:23;7.47;77.20
66835;HTU21D;53743;51.100;5.874;2024-02-23T04:32:26;7.46;77.87
66835;HTU21D;53743;51.100;5.874;2024-02-23T04:33:27;7.47;78.48
66835;HTU21D;53743;51.100;5.874;2024-02-23T04:34:29;7.43;77.37
66835;HTU21D;53743;51.100;5.874;2024-02-23T04:35:30;7.41;77.20
66835;HTU21D;53743;51.100;5.874;2024-02-23T04:36:32;7.35;76.26
66835;HTU21D;53743;51.100;5.874;2024-02-23T04:37:34;7.37;76.73
66835;HTU21D;53743;51.100;5.874;2024-02-23T04:38:35;7.33;77.78
66835;HTU21D;53743;51.100;5.874;2024-02-23T04:39:37;7.30;78.10
66835;HTU21D;53743;51.100;5.874;2024-02-23T04:40:38;7.28;78.16
66835;HTU21D;53743;51.100;5.874;2024-02-23T04:41:40;7.23;78.29
66835;HTU21D;53743;51.100;5.874;2024-02-23T04:42:43;7.23;78.22
66835;HTU21D;53743;51.100;5.874;2024-02-23T04:43:48;7.19;78.46
66835;HTU21D;53743;51.100;5.874;2024-02-23T04:44:49;7.15;77.47
66835;HTU21D;53743;51.100;5.874;2024-02-23T04:45:50;7.14;78.12
66835;HTU21D;53743;51.100;5.874;2024-02-23T04:46:52;7.19;78.61
66835;HTU21D;53743;51.100;5.874;2024-02-23T04:47:54;7.16;78.54
66835;HTU21D;53743;51.100;5.874;2024-02-23T04:48:55;7.17;78.85
66835;HTU21D;53743;51.100;5.874;2024-02-23T04:49:57;7.23;78.68
66835;HTU21D;53743;51.100;5.874;2024-02-23T04:50:58;7.23;78.13
66835;HTU21D;53743;51.100;5.874;2024-02-23T04:52:00;7.23;77.85
66835;HTU21D;53743;51.100;5.874;2024-02-23T04:53:02;7.26;79.51
66835;HTU21D;53743;51.100;5.874;2024-02-23T04:54:03;7.31;79.66
66835;HTU21D;53743;51.100;5.874;2024-02-23T04:55:05;7.34;78.01
66835;HTU21D;53743;51.100;5.874;2024-02-23T04:56:07;7.39;78.49
66835;HTU21D;53743;51.100;5.874;2024-02-23T04:57:08;7.40;78.14
66835;HTU21D;53743;51.100;5.874;2024-02-23T04:58:09;7.40;78.27
66835;HTU21D;53743;51.100;5.874;2024-02-23T04:59:12;7.43;78.21
66835;HTU21D;53743;51.100;5.874;2024-02-23T05:00:14;7.42;77.22
66835;HTU21D;53743;51.100;5.874;2024-02-23T05:01:16;7.45;78.91
66835;HTU21D;53743;51.100;5.874;2024-02-23T05:02:17;7.50;78.20
66835;HTU21D;53743;51.100;5.874;2024-02-23T05:03:20;7.52;77.22
66835;HTU21D;53743;51.100;5.874;2024-02-23T05:04:21;7.52;77.53
66835;HTU21D;53743;51.100;5.874;2024-02-23T05:05:23;7.50;77.11
66835;HTU21D;53743;51.100;5.874;2024-02-23T05:06:24;7.48;77.94
66835;HTU21D;53743;51.100;5.874;2024-02-23T05:07:25;7.49;77.56
66835;HTU21D;53743;51.100;5.874;2024-02-23T05:08:27;7.50;78.00
66835;HTU21D;53743;51.100;5.874;2024-02-23T05:09:30;7.53;77.56
66835;HTU21D;53743;51.100;5.874;2024-02-23T05:10:32;7.53;77.36
66835;HTU21D;53743;51.100;5.874;2024-02-23T05:11:34;7.53;78.13
66835;HTU21D;53743;51.100;5.874;2024-02-23T05:12:35;7.56;78.27
66835;HTU21D;53743;51.100;5.874;2024-02-23T05:13:36;7.55;77.24
66835;HTU21D;53743;51.100;5.874;2024-02-23T05:14:39;7.55;77.50
66835;HTU21D;53743;51.100;5.874;2024-02-23T05:15:40;7.58;77.67
66835;HTU21D;53743;51.100;5.874;2024-02-23T05:16:42;7.59;77.30
66835;HTU21D;53743;51.100;5.874;2024-02-23T05:17:43;7.62;77.76
66835;HTU21D;53743;51.100;5.874;2024-02-23T05:18:47;7.61;77.50
66835;HTU21D;53743;51.100;5.874;2024-02-23T05:19:48;7.62;77.52
66835;HTU21D;53743;51.100;5.874;2024-02-23T05:20:50;7.62;77.56
66835;HTU21D;53743;51.100;5.874;2024-02-23T05:21:51;7.65;77.72
66835;HTU21D;53743;51.100;5.874;2024-02-23T05:22:53;7.67;77.70
66835;HTU21D;53743;51.100;5.874;2024-02-23T05:23:54;7.69;77.08
66835;HTU21D;53743;51.100;5.874;2024-02-23T05:24:55;7.69;77.69
66835;HTU21D;53743;51.100;5.874;2024-02-23T05:25:56;7.72;77.41
66835;HTU21D;53743;51.100;5.874;2024-02-23T05:26:58;7.69;75.98
66835;HTU21D;53743;51.100;5.874;2024-02-23T05:28:03;7.73;77.13
66835;HTU21D;53743;51.100;5.874;2024-02-23T05:29:05;7.74;77.58
66835;HTU21D;53743;51.100;5.874;2024-02-23T05:30:07;7.75;76.12
66835;HTU21D;53743;51.100;5.874;2024-02-23T05:31:10;7.73;76.35
66835;HTU21D;53743;51.100;5.874;2024-02-23T05:32:11;7.73;77.20
66835;HTU21D;53743;51.100;5.874;2024-02-23T05:33:13;7.70;75.90
66835;HTU21D;53743;51.100;5.874;2024-02-23T05:34:15;7.67;75.34
66835;HTU21D;53743;51.100;5.874;2024-02-23T05:35:17;7.70;76.34
66835;HTU21D;53743;51.100;5.874;2024-02-23T05:36:18;7.71;76.52
66835;HTU21D;53743;51.100;5.874;2024-02-23T05:37:21;7.71;75.60
66835;HTU21D;53743;51.100;5.874;2024-02-23T05:38:22;7.71;76.24
66835;HTU21D;53743;51.100;5.874;2024-02-23T05:39:24;7.71;76.96
66835;HTU21D;53743;51.100;5.874;2024-02-23T05:40:25;7.73;77.11
66835;HTU21D;53743;51.100;5.874;2024-02-23T05:41:27;7.75;76.45
66835;HTU21D;53743;51.100;5.874;2024-02-23T05:42:28;7.76;77.25
66835;HTU21D;53743;51.100;5.874;2024-02-23T05:43:29;7.77;76.90
66835;HTU21D;53743;51.100;5.874;2024-02-23T05:44:31;7.77;76.99
66835;HTU21D;53743;51.100;5.874;2024-02-23T05:45:32;7.78;76.66
66835;HTU21D;53743;51.100;5.874;2024-02-23T05:46:36;7.77;76.12
66835;HTU21D;53743;51.100;5.874;2024-02-23T05:47:37;7.74;75.09
66835;HTU21D;53743;51.100;5.874;2024-02-23T05:48:39;7.81;74.10
66835;HTU21D;53743;51.100;5.874;2024-02-23T05:49:41;7.81;75.87
66835;HTU21D;53743;51.100;5.874;2024-02-23T05:50:44;7.76;75.27
66835;HTU21D;53743;51.100;5.874;2024-02-23T05:51:45;7.71;74.33
66835;HTU21D;53743;51.100;5.874;2024-02-23T05:52:47;7.72;75.69
66835;HTU21D;53743;51.100;5.874;2024-02-23T05:53:47;7.74;76.50
66835;HTU21D;53743;51.100;5.874;2024-02-23T05:54:50;7.74;76.50
66835;HTU21D;53743;51.100;5.874;2024-02-23T05:55:52;7.73;76.34
66835;HTU21D;53743;51.100;5.874;2024-02-23T05:56:54;7.77;75.90
66835;HTU21D;53743;51.100;5.874;2024-02-23T05:57:55;7.82;76.31
66835;HTU21D;53743;51.100;5.874;2024-02-23T05:58:57;7.77;75.13
66835;HTU21D;53743;51.100;5.874;2024-02-23T05:59:58;7.78;74.34
66835;HTU21D;53743;51.100;5.874;2024-02-23T06:01:00;7.77;75.64
66835;HTU21D;53743;51.100;5.874;2024-02-23T06:02:01;7.78;76.37
66835;HTU21D;53743;51.100;5.874;2024-02-23T06:03:04;7.82;76.08
66835;HTU21D;53743;51.100;5.874;2024-02-23T06:04:05;7.81;76.50
66835;HTU21D;53743;51.100;5.874;2024-02-23T06:05:07;7.81;76.54
66835;HTU21D;53743;51.100;5.874;2024-02-23T06:06:10;7.77;74.63
66835;HTU21D;53743;51.100;5.874;2024-02-23T06:07:11;7.75;75.60
66835;HTU21D;53743;51.100;5.874;2024-02-23T06:08:13;7.72;74.99
66835;HTU21D;53743;51.100;5.874;2024-02-23T06:09:14;7.76;76.00
66835;HTU21D;53743;51.100;5.874;2024-02-23T06:10:16;7.75;74.34
66835;HTU21D;53743;51.100;5.874;2024-02-23T06:11:17;7.74;75.12
66835;HTU21D;53743;51.100;5.874;2024-02-23T06:12:19;7.75;75.64
66835;HTU21D;53743;51.100;5.874;2024-02-23T06:13:20;7.77;75.37
66835;HTU21D;53743;51.100;5.874;2024-02-23T06:14:22;7.76;75.86
66835;HTU21D;53743;51.100;5.874;2024-02-23T06:15:23;7.77;75.12
66835;HTU21D;53743;51.100;5.874;2024-02-23T06:16:25;7.76;75.38
66835;HTU21D;53743;51.100;5.874;2024-02-23T06:17:26;7.75;74.73
66835;HTU21D;53743;51.100;5.874;2024-02-23T06:18:28;7.71;74.74
66835;HTU21D;53743;51.100;5.874;2024-02-23T06:19:29;7.69;75.66
66835;HTU21D;53743;51.100;5.874;2024-02-23T06:20:33;7.69;75.16
66835;HTU21D;53743;51.100;5.874;2024-02-23T06:21:34;7.67;76.08
66835;HTU21D;53743;51.100;5.874;2024-02-23T06:22:36;7.64;75.16
66835;HTU21D;53743;51.100;5.874;2024-02-23T06:23:38;7.64;76.44
66835;HTU21D;53743;51.100;5.874;2024-02-23T06:24:40;7.67;75.30
66835;HTU21D;53743;51.100;5.874;2024-02-23T06:25:41;7.61;74.58
66835;HTU21D;53743;51.100;5.874;2024-02-23T06:26:44;7.69;75.76
66835;HTU21D;53743;51.100;5.874;2024-02-23T06:27:46;7.69;75.56
66835;HTU21D;53743;51.100;5.874;2024-02-23T06:28:48;7.71;75.05
66835;HTU21D;53743;51.100;5.874;2024-02-23T06:29:49;7.73;75.07